createdAt,value
2017-04-24T00:00:01.036Z,3.18
2017-04-24T00:00:42.758Z,3.21
2017-04-24T00:01:23.395Z,3.16
2017-04-24T00:02:04.016Z,3.16
2017-04-24T00:02:44.678Z,3.16
2017-04-24T00:03:25.351Z,3.11
2017-04-24T00:04:05.998Z,3.07
2017-04-24T00:04:46.647Z,3.07
2017-04-24T00:05:27.335Z,3.05
2017-04-24T00:06:08.033Z,3.08
2017-04-24T00:06:48.551Z,3.04
2017-04-24T00:07:29.246Z,3.08
2017-04-24T00:08:09.943Z,3.07
2017-04-24T00:08:50.645Z,3.04
2017-04-24T00:09:31.167Z,2.98
2017-04-24T00:10:11.884Z,3.01
2017-04-24T00:10:52.640Z,2.97
2017-04-24T00:11:33.371Z,3.03
2017-04-24T00:12:14.079Z,2.9
2017-04-24T00:12:54.717Z,2.98
2017-04-24T00:13:35.498Z,2.95
2017-04-24T00:14:16.196Z,2.89
2017-04-24T00:14:56.856Z,2.83
2017-04-24T00:15:37.554Z,2.82
2017-04-24T00:16:18.264Z,2.83
2017-04-24T00:16:58.924Z,2.89
2017-04-24T00:17:39.574Z,2.87
2017-04-24T00:18:20.345Z,2.85
2017-04-24T00:19:01.072Z,2.8
2017-04-24T00:19:41.737Z,2.82
2017-04-24T00:20:22.429Z,2.79
2017-04-24T00:21:03.112Z,2.8
2017-04-24T00:21:43.635Z,2.85
2017-04-24T00:22:24.329Z,2.79
2017-04-24T00:23:05.433Z,2.8
2017-04-24T00:23:46.135Z,2.85
2017-04-24T00:24:26.649Z,2.8
2017-04-24T00:25:07.361Z,2.71
2017-04-24T00:25:48.020Z,2.75
2017-04-24T00:26:28.789Z,2.69
2017-04-24T00:27:09.530Z,2.74
2017-04-24T00:27:50.183Z,2.75
2017-04-24T00:28:30.915Z,2.71
2017-04-24T00:29:11.590Z,2.71
2017-04-24T00:29:52.243Z,2.77
2017-04-24T00:30:32.895Z,2.71
2017-04-24T00:31:13.548Z,2.77
2017-04-24T00:31:54.208Z,2.69
2017-04-24T00:32:34.957Z,2.69
2017-04-24T00:33:15.611Z,2.75
2017-04-24T00:33:56.268Z,2.74
2017-04-24T00:34:37.017Z,2.67
2017-04-24T00:35:17.667Z,2.64
2017-04-24T00:35:58.324Z,2.72
2017-04-24T00:36:39.081Z,2.64
2017-04-24T00:37:19.741Z,2.65
2017-04-24T00:38:00.479Z,2.65
2017-04-24T00:38:41.135Z,2.62
2017-04-24T00:39:21.788Z,2.62
2017-04-24T00:40:02.447Z,2.65
2017-04-24T00:40:43.099Z,2.68
2017-04-24T00:41:23.748Z,2.64
2017-04-24T00:42:04.408Z,2.6
2017-04-24T00:42:45.160Z,2.62
2017-04-24T00:43:25.836Z,2.65
2017-04-24T00:44:06.564Z,2.6
2017-04-24T00:44:47.114Z,2.5
2017-04-24T00:45:27.668Z,2.51
2017-04-24T00:46:08.299Z,2.54
2017-04-24T00:46:48.868Z,2.62
2017-04-24T00:47:29.407Z,2.49
2017-04-24T00:48:09.975Z,2.56
2017-04-24T00:48:50.519Z,2.53
2017-04-24T00:49:31.173Z,2.47
2017-04-24T00:50:11.722Z,2.53
2017-04-24T00:50:52.271Z,2.54
2017-04-24T00:51:32.821Z,2.53
2017-04-24T00:52:13.398Z,2.51
2017-04-24T00:52:54.022Z,2.5
2017-04-24T00:53:34.652Z,2.49
2017-04-24T00:54:15.235Z,2.49
2017-04-24T00:54:55.779Z,2.47
2017-04-24T00:55:36.329Z,2.47
2017-04-24T00:56:16.879Z,2.36
2017-04-24T00:56:57.439Z,2.51
2017-04-24T00:57:37.989Z,2.43
2017-04-24T00:58:18.542Z,2.47
2017-04-24T00:58:59.081Z,2.39
2017-04-24T00:59:39.640Z,2.36
2017-04-24T01:00:20.229Z,2.43
2017-04-24T01:01:00.826Z,2.36
2017-04-24T01:01:41.344Z,2.36
2017-04-24T01:02:21.957Z,2.32
2017-04-24T01:03:02.535Z,2.31
2017-04-24T01:03:43.133Z,2.33
2017-04-24T01:04:23.660Z,2.31
2017-04-24T01:05:04.281Z,2.35
2017-04-24T01:05:44.839Z,2.36
2017-04-24T01:06:25.439Z,2.38
2017-04-24T01:07:05.944Z,2.31
2017-04-24T01:07:46.554Z,2.26
2017-04-24T01:08:27.148Z,2.24
2017-04-24T01:09:07.738Z,2.24
2017-04-24T01:09:48.286Z,2.29
2017-04-24T01:10:28.877Z,2.24
2017-04-24T01:11:09.409Z,2.26
2017-04-24T01:11:49.954Z,2.26
2017-04-24T01:12:30.500Z,2.28
2017-04-24T01:13:11.055Z,2.24
2017-04-24T01:13:51.723Z,2.31
2017-04-24T01:14:32.377Z,2.22
2017-04-24T01:15:13.004Z,2.18
2017-04-24T01:15:53.571Z,2.22
2017-04-24T01:16:34.138Z,2.22
2017-04-24T01:17:14.774Z,2.18
2017-04-24T01:17:55.481Z,2.24
2017-04-24T01:18:36.076Z,2.24
2017-04-24T01:19:16.647Z,2.18
2017-04-24T01:19:57.320Z,2.18
2017-04-24T01:20:37.880Z,2.17
2017-04-24T01:21:18.470Z,2.2
2017-04-24T01:21:59.015Z,2.2
2017-04-24T01:22:39.604Z,2.18
2017-04-24T01:23:20.180Z,2.24
2017-04-24T01:24:00.974Z,2.17
2017-04-24T01:24:41.510Z,2.22
2017-04-24T01:25:22.119Z,2.15
2017-04-24T01:26:02.767Z,2.13
2017-04-24T01:26:43.386Z,2.15
2017-04-24T01:27:24.069Z,2.1
2017-04-24T01:28:04.691Z,2.15
2017-04-24T01:28:45.256Z,2.18
2017-04-24T01:29:25.930Z,2.13
2017-04-24T01:30:06.573Z,2.1
2017-04-24T01:30:47.155Z,2.24
2017-04-24T01:31:27.756Z,2.04
2017-04-24T01:32:08.270Z,2.06
2017-04-24T01:32:48.884Z,2.02
2017-04-24T01:33:29.462Z,2.1
2017-04-24T01:34:10.057Z,2.06
2017-04-24T01:34:50.561Z,2.1
2017-04-24T01:35:31.199Z,2.14
2017-04-24T01:36:11.760Z,2.13
2017-04-24T01:36:52.360Z,2.11
2017-04-24T01:37:32.885Z,2.04
2017-04-24T01:38:13.472Z,2.1
2017-04-24T01:38:54.078Z,2.04
2017-04-24T01:39:34.647Z,2.08
2017-04-24T01:40:15.219Z,2.07
2017-04-24T01:40:55.869Z,2.06
2017-04-24T01:41:36.423Z,2.04
2017-04-24T01:42:16.970Z,2.06
2017-04-24T01:42:57.620Z,2.1
2017-04-24T01:43:38.172Z,2.1
2017-04-24T01:44:18.825Z,1.97
2017-04-24T01:44:59.346Z,1.97
2017-04-24T01:45:39.958Z,1.97
2017-04-24T01:46:20.535Z,1.97
2017-04-24T01:47:01.129Z,1.95
2017-04-24T01:47:41.654Z,1.92
2017-04-24T01:48:22.288Z,1.91
2017-04-24T01:49:02.837Z,1.92
2017-04-24T01:49:43.432Z,1.97
2017-04-24T01:50:23.991Z,1.91
2017-04-24T01:51:04.540Z,1.92
2017-04-24T01:51:45.138Z,1.92
2017-04-24T01:52:25.738Z,1.94
2017-04-24T01:53:06.247Z,1.91
2017-04-24T01:53:47.262Z,1.92
2017-04-24T01:54:27.855Z,1.95
2017-04-24T01:55:08.454Z,1.8
2017-04-24T01:55:48.975Z,1.85
2017-04-24T01:56:29.560Z,1.92
2017-04-24T01:57:10.148Z,1.97
2017-04-24T01:57:51.226Z,1.88
2017-04-24T01:58:31.831Z,1.87
2017-04-24T01:59:12.389Z,1.87
2017-04-24T01:59:52.987Z,1.87
2017-04-24T02:00:33.627Z,1.87
2017-04-24T02:01:14.150Z,1.87
2017-04-24T02:01:54.675Z,1.94
2017-04-24T02:02:35.326Z,1.91
2017-04-24T02:03:15.830Z,1.89
2017-04-24T02:03:56.434Z,1.87
2017-04-24T02:04:37.085Z,1.85
2017-04-24T02:05:17.606Z,1.84
2017-04-24T02:05:58.213Z,1.84
2017-04-24T02:06:38.861Z,1.88
2017-04-24T02:07:19.421Z,1.84
2017-04-24T02:08:00.068Z,1.87
2017-04-24T02:08:40.695Z,1.73
2017-04-24T02:09:21.273Z,1.8
2017-04-24T02:10:01.923Z,1.77
2017-04-24T02:10:42.576Z,1.84
2017-04-24T02:11:23.246Z,1.8
2017-04-24T02:12:03.889Z,1.78
2017-04-24T02:12:44.550Z,1.8
2017-04-24T02:13:25.186Z,1.73
2017-04-24T02:14:05.814Z,1.81
2017-04-24T02:14:47.417Z,1.77
2017-04-24T02:15:28.068Z,1.8
2017-04-24T02:16:10.645Z,1.76
2017-04-24T02:16:51.216Z,1.8
2017-04-24T02:17:31.870Z,1.67
2017-04-24T02:18:12.510Z,1.74
2017-04-24T02:18:53.151Z,1.74
2017-04-24T02:19:33.825Z,1.77
2017-04-24T02:20:14.485Z,1.8
2017-04-24T02:20:55.060Z,1.8
2017-04-24T02:21:35.658Z,1.76
2017-04-24T02:22:16.176Z,1.76
2017-04-24T02:22:56.792Z,1.76
2017-04-24T02:23:37.466Z,1.8
2017-04-24T02:24:18.065Z,1.81
2017-04-24T02:24:58.570Z,1.77
2017-04-24T02:25:39.181Z,1.68
2017-04-24T02:26:19.840Z,1.8
2017-04-24T02:27:00.498Z,1.73
2017-04-24T02:27:41.150Z,1.71
2017-04-24T02:28:21.801Z,1.8
2017-04-24T02:29:02.356Z,1.73
2017-04-24T02:29:43.006Z,1.84
2017-04-24T02:30:23.656Z,1.87
2017-04-24T02:31:04.294Z,1.84
2017-04-24T02:31:44.819Z,1.81
2017-04-24T02:32:25.415Z,1.8
2017-04-24T02:33:06.021Z,1.89
2017-04-24T02:33:46.538Z,1.89
2017-04-24T02:34:28.168Z,1.88
2017-04-24T02:35:08.799Z,1.91
2017-04-24T02:35:49.627Z,1.89
2017-04-24T02:36:31.256Z,1.91
2017-04-24T02:37:11.844Z,1.89
2017-04-24T02:37:53.458Z,1.95
2017-04-24T02:38:33.979Z,1.89
2017-04-24T02:39:14.623Z,1.85
2017-04-24T02:39:55.213Z,1.91
2017-04-24T02:40:35.778Z,1.91
2017-04-24T02:41:16.279Z,1.87
2017-04-24T02:41:56.880Z,1.85
2017-04-24T02:42:37.635Z,1.91
2017-04-24T02:43:18.304Z,1.89
2017-04-24T02:43:59.044Z,1.89
2017-04-24T02:44:39.694Z,1.84
2017-04-24T02:45:20.353Z,1.87
2017-04-24T02:46:01.083Z,1.87
2017-04-24T02:46:41.609Z,1.84
2017-04-24T02:47:22.304Z,1.92
2017-04-24T02:48:02.841Z,1.91
2017-04-24T02:48:43.387Z,1.94
2017-04-24T02:49:24.051Z,1.88
2017-04-24T02:50:04.797Z,1.88
2017-04-24T02:50:45.371Z,1.87
2017-04-24T02:51:26.023Z,1.88
2017-04-24T02:52:06.686Z,1.87
2017-04-24T02:52:47.443Z,1.88
2017-04-24T02:53:28.180Z,1.85
2017-04-24T02:54:08.835Z,1.81
2017-04-24T02:54:49.495Z,1.92
2017-04-24T02:55:30.185Z,1.94
2017-04-24T02:56:10.774Z,1.81
2017-04-24T02:56:51.303Z,1.88
2017-04-24T02:57:32.006Z,1.94
2017-04-24T02:58:12.583Z,1.89
2017-04-24T02:58:53.179Z,1.91
2017-04-24T02:59:33.718Z,1.85
2017-04-24T03:00:14.399Z,1.91
2017-04-24T03:00:55.070Z,1.89
2017-04-24T03:01:35.810Z,1.91
2017-04-24T03:02:16.464Z,1.87
2017-04-24T03:02:57.123Z,1.87
2017-04-24T03:03:37.659Z,1.94
2017-04-24T03:04:18.247Z,1.89
2017-04-24T03:04:59.802Z,1.91
2017-04-24T03:05:41.409Z,1.89
2017-04-24T03:06:22.005Z,1.91
2017-04-24T03:07:02.576Z,1.87
2017-04-24T03:07:43.109Z,1.84
2017-04-24T03:08:23.716Z,1.91
2017-04-24T03:09:04.309Z,1.84
2017-04-24T03:09:44.868Z,1.87
2017-04-24T03:10:25.456Z,1.74
2017-04-24T03:11:06.017Z,1.87
2017-04-24T03:11:46.616Z,1.81
2017-04-24T03:12:27.149Z,1.71
2017-04-24T03:13:07.747Z,1.85
2017-04-24T03:13:48.330Z,1.85
2017-04-24T03:14:28.922Z,1.71
2017-04-24T03:15:09.453Z,1.85
2017-04-24T03:15:50.039Z,1.73
2017-04-24T03:16:30.674Z,1.73
2017-04-24T03:17:11.199Z,1.81
2017-04-24T03:17:51.790Z,1.8
2017-04-24T03:18:32.326Z,1.76
2017-04-24T03:19:12.846Z,1.78
2017-04-24T03:19:53.480Z,1.78
2017-04-24T03:20:34.076Z,1.76
2017-04-24T03:21:14.629Z,1.78
2017-04-24T03:21:56.515Z,1.8
2017-04-24T03:22:37.059Z,1.77
2017-04-24T03:23:17.619Z,1.81
2017-04-24T03:23:58.161Z,1.81
2017-04-24T03:24:38.817Z,1.71
2017-04-24T03:25:19.350Z,1.81
2017-04-24T03:25:59.935Z,1.74
2017-04-24T03:26:40.514Z,1.8
2017-04-24T03:27:21.140Z,1.74
2017-04-24T03:28:01.793Z,1.74
2017-04-24T03:28:42.439Z,1.76
2017-04-24T03:29:23.000Z,1.78
2017-04-24T03:30:03.546Z,1.77
2017-04-24T03:30:44.196Z,1.7
2017-04-24T03:31:24.767Z,1.7
2017-04-24T03:32:05.403Z,1.71
2017-04-24T03:32:45.951Z,1.76
2017-04-24T03:33:26.506Z,1.68
2017-04-24T03:34:07.079Z,1.7
2017-04-24T03:34:47.709Z,1.62
2017-04-24T03:35:28.265Z,1.71
2017-04-24T03:36:08.856Z,1.7
2017-04-24T03:36:49.447Z,1.6
2017-04-24T03:37:29.974Z,1.7
2017-04-24T03:38:10.564Z,1.66
2017-04-24T03:38:52.183Z,1.7
2017-04-24T03:39:32.780Z,1.67
2017-04-24T03:40:13.302Z,1.68
2017-04-24T03:40:54.906Z,1.63
2017-04-24T03:41:35.505Z,1.58
2017-04-24T03:42:16.101Z,1.67
2017-04-24T03:42:56.627Z,1.66
2017-04-24T03:43:37.483Z,1.67
2017-04-24T03:44:19.542Z,1.63
2017-04-24T03:45:00.150Z,1.59
2017-04-24T03:45:40.800Z,1.6
2017-04-24T03:46:21.457Z,1.49
2017-04-24T03:47:02.118Z,1.58
2017-04-24T03:47:47.273Z,1.56
2017-04-24T03:48:27.918Z,1.53
2017-04-24T03:49:08.581Z,1.56
2017-04-24T03:49:49.229Z,1.55
2017-04-24T03:50:29.808Z,1.55
2017-04-24T03:51:10.446Z,1.52
2017-04-24T03:51:51.040Z,1.53
2017-04-24T03:52:31.734Z,1.58
2017-04-24T03:53:12.242Z,1.56
2017-04-24T03:53:52.844Z,1.56
2017-04-24T03:54:33.458Z,1.53
2017-04-24T03:55:14.055Z,1.52
2017-04-24T03:55:54.580Z,1.52
2017-04-24T03:56:35.193Z,1.49
2017-04-24T03:57:15.825Z,1.56
2017-04-24T03:57:56.479Z,1.53
2017-04-24T03:58:37.129Z,1.52
2017-04-24T03:59:17.818Z,1.55
2017-04-24T03:59:58.431Z,1.55
2017-04-24T04:00:39.072Z,1.56
2017-04-24T04:01:19.719Z,1.5
2017-04-24T04:02:00.293Z,1.44
2017-04-24T04:02:40.946Z,1.52
2017-04-24T04:03:21.540Z,1.49
2017-04-24T04:04:02.132Z,1.42
2017-04-24T04:04:42.641Z,1.55
2017-04-24T04:05:23.264Z,1.52
2017-04-24T04:06:03.837Z,1.48
2017-04-24T04:06:44.432Z,1.49
2017-04-24T04:07:24.946Z,1.45
2017-04-24T04:08:05.567Z,1.48
2017-04-24T04:08:46.147Z,1.49
2017-04-24T04:09:26.740Z,1.42
2017-04-24T04:10:07.273Z,1.48
2017-04-24T04:10:47.860Z,1.42
2017-04-24T04:11:28.450Z,1.45
2017-04-24T04:12:09.046Z,1.45
2017-04-24T04:12:50.465Z,1.42
2017-04-24T04:13:31.101Z,1.41
2017-04-24T04:14:11.775Z,1.5
2017-04-24T04:14:52.395Z,1.5
2017-04-24T04:15:32.891Z,1.44
2017-04-24T04:16:13.488Z,1.42
2017-04-24T04:16:54.142Z,1.45
2017-04-24T04:17:34.812Z,1.41
2017-04-24T04:18:15.437Z,1.4
2017-04-24T04:18:56.102Z,1.44
2017-04-24T04:19:36.768Z,1.42
2017-04-24T04:20:17.413Z,1.41
2017-04-24T04:20:58.002Z,1.45
2017-04-24T04:21:38.701Z,1.42
2017-04-24T04:22:19.203Z,1.42
2017-04-24T04:22:59.828Z,1.41
2017-04-24T04:23:40.403Z,1.45
2017-04-24T04:24:21.006Z,1.5
2017-04-24T04:25:01.525Z,1.44
2017-04-24T04:25:42.125Z,1.49
2017-04-24T04:26:22.810Z,1.45
2017-04-24T04:27:03.407Z,1.49
2017-04-24T04:27:43.931Z,1.52
2017-04-24T04:28:24.537Z,1.49
2017-04-24T04:29:05.116Z,1.52
2017-04-24T04:29:46.216Z,1.52
2017-04-24T04:30:27.060Z,1.49
2017-04-24T04:31:07.662Z,1.49
2017-04-24T04:31:48.289Z,1.53
2017-04-24T04:32:28.813Z,1.55
2017-04-24T04:33:09.486Z,1.58
2017-04-24T04:33:50.158Z,1.56
2017-04-24T04:34:30.700Z,1.52
2017-04-24T04:35:11.377Z,1.53
2017-04-24T04:35:52.006Z,1.55
2017-04-24T04:36:32.547Z,1.52
2017-04-24T04:37:13.241Z,1.53
2017-04-24T04:37:53.874Z,1.55
2017-04-24T04:38:34.413Z,1.6
2017-04-24T04:39:15.093Z,1.6
2017-04-24T04:39:55.713Z,1.62
2017-04-24T04:40:36.223Z,1.67
2017-04-24T04:41:16.843Z,1.68
2017-04-24T04:41:57.495Z,1.7
2017-04-24T04:42:38.157Z,1.68
2017-04-24T04:43:18.801Z,1.67
2017-04-24T04:43:59.457Z,1.71
2017-04-24T04:44:40.105Z,1.7
2017-04-24T04:45:20.750Z,1.76
2017-04-24T04:46:01.393Z,1.62
2017-04-24T04:46:41.906Z,1.73
2017-04-24T04:47:22.513Z,1.73
2017-04-24T04:48:03.137Z,1.78
2017-04-24T04:48:43.658Z,1.8
2017-04-24T04:49:24.267Z,1.87
2017-04-24T04:50:04.901Z,1.81
2017-04-24T04:50:45.447Z,1.74
2017-04-24T04:51:26.124Z,1.8
2017-04-24T04:52:06.778Z,1.87
2017-04-24T04:52:47.429Z,1.91
2017-04-24T04:53:28.084Z,1.81
2017-04-24T04:54:08.749Z,1.97
2017-04-24T04:54:49.393Z,1.95
2017-04-24T04:55:30.046Z,1.95
2017-04-24T04:56:10.702Z,1.97
2017-04-24T04:56:51.349Z,2.1
2017-04-24T04:57:31.991Z,2.06
2017-04-24T04:58:12.655Z,2.08
2017-04-24T04:58:53.306Z,2.04
2017-04-24T04:59:33.985Z,2.06
2017-04-24T05:00:14.614Z,2.11
2017-04-24T05:00:55.263Z,2.15
2017-04-24T05:01:35.911Z,2.04
2017-04-24T05:02:16.565Z,2.15
2017-04-24T05:02:57.236Z,2.15
2017-04-24T05:03:37.870Z,2.24
2017-04-24T05:04:18.524Z,2.2
2017-04-24T05:04:59.172Z,2.14
2017-04-24T05:05:39.823Z,2.18
2017-04-24T05:06:20.421Z,2.28
2017-04-24T05:07:01.122Z,2.24
2017-04-24T05:07:41.632Z,2.29
2017-04-24T05:08:22.242Z,2.32
2017-04-24T05:09:02.831Z,2.29
2017-04-24T05:09:43.543Z,2.39
2017-04-24T05:10:24.050Z,2.36
2017-04-24T05:11:04.631Z,2.49
2017-04-24T05:11:45.710Z,2.38
2017-04-24T05:12:26.371Z,2.43
2017-04-24T05:13:07.004Z,2.51
2017-04-24T05:13:47.662Z,2.53
2017-04-24T05:14:28.307Z,2.62
2017-04-24T05:15:09.379Z,2.65
2017-04-24T05:15:51.065Z,2.62
2017-04-24T05:16:31.714Z,2.67
2017-04-24T05:17:12.368Z,2.72
2017-04-24T05:17:53.039Z,2.74
2017-04-24T05:18:33.677Z,2.77
2017-04-24T05:19:14.326Z,2.86
2017-04-24T05:19:54.983Z,2.74
2017-04-24T05:20:35.640Z,2.86
2017-04-24T05:21:16.349Z,2.87
2017-04-24T05:21:57.023Z,2.97
2017-04-24T05:22:37.559Z,2.97
2017-04-24T05:23:18.301Z,3.05
2017-04-24T05:23:58.940Z,3.08
2017-04-24T05:24:40.656Z,3
2017-04-24T05:25:21.571Z,3.01
2017-04-24T05:26:02.188Z,3.19
2017-04-24T05:26:42.864Z,3.28
2017-04-24T05:27:23.489Z,3.26
2017-04-24T05:28:04.176Z,3.36
2017-04-24T05:28:44.911Z,3.42
2017-04-24T05:29:25.918Z,3.45
2017-04-24T05:30:06.510Z,3.56
2017-04-24T05:30:47.520Z,3.63
2017-04-24T05:31:28.117Z,3.69
2017-04-24T05:32:09.414Z,3.73
2017-04-24T05:32:52.304Z,3.84
2017-04-24T05:33:33.081Z,3.87
2017-04-24T05:34:14.753Z,3.88
2017-04-24T05:34:55.410Z,3.98
2017-04-24T05:35:38.088Z,4.01
2017-04-24T05:36:18.746Z,3.94
2017-04-24T05:36:59.635Z,4.13
2017-04-24T05:37:41.290Z,4.12
2017-04-24T05:38:22.093Z,4.14
2017-04-24T05:39:02.819Z,4.23
2017-04-24T05:39:52.688Z,4.26
2017-04-24T05:40:33.410Z,4.28
2017-04-24T05:41:14.104Z,4.22
2017-04-24T05:41:54.705Z,4.31
2017-04-24T05:42:35.360Z,4.32
2017-04-24T05:43:16.005Z,4.38
2017-04-24T05:43:56.688Z,4.37
2017-04-24T05:44:37.310Z,4.41
2017-04-24T05:45:17.961Z,4.38
2017-04-24T05:45:58.595Z,4.35
2017-04-24T05:46:39.123Z,4.42
2017-04-24T05:47:19.864Z,4.44
2017-04-24T05:48:00.554Z,4.49
2017-04-24T05:48:41.061Z,4.49
2017-04-24T05:49:21.662Z,4.58
2017-04-24T05:50:02.412Z,4.63
2017-04-24T05:50:42.984Z,4.68
2017-04-24T05:51:23.891Z,4.62
2017-04-24T05:52:04.490Z,4.74
2017-04-24T05:52:45.145Z,4.71
2017-04-24T05:53:25.794Z,4.71
2017-04-24T05:54:06.455Z,4.7
2017-04-24T05:54:47.109Z,4.73
2017-04-24T05:55:27.759Z,4.87
2017-04-24T05:56:08.424Z,4.82
2017-04-24T05:56:49.060Z,4.74
2017-04-24T05:57:30.638Z,4.82
2017-04-24T05:58:11.312Z,4.78
2017-04-24T05:58:52.166Z,4.89
2017-04-24T05:59:32.805Z,4.8
2017-04-24T06:00:13.455Z,4.86
2017-04-24T06:00:54.098Z,4.8
2017-04-24T06:01:34.760Z,4.82
2017-04-24T06:02:15.386Z,4.78
2017-04-24T06:02:56.070Z,4.84
2017-04-24T06:03:36.716Z,4.93
2017-04-24T06:04:17.418Z,4.92
2017-04-24T06:04:58.033Z,5
2017-04-24T06:05:38.688Z,5.1
2017-04-24T06:06:19.369Z,5.2
2017-04-24T06:06:59.957Z,5.26
2017-04-24T06:07:40.539Z,5.33
2017-04-24T06:08:21.219Z,5.38
2017-04-24T06:09:02.898Z,5.59
2017-04-24T06:09:43.694Z,5.56
2017-04-24T06:10:24.216Z,5.68
2017-04-24T06:11:04.824Z,5.84
2017-04-24T06:11:45.517Z,5.9
2017-04-24T06:12:26.205Z,5.98
2017-04-24T06:13:06.745Z,6.08
2017-04-24T06:13:47.447Z,6.05
2017-04-24T06:14:28.013Z,6.22
2017-04-24T06:15:08.627Z,6.26
2017-04-24T06:15:49.141Z,6.19
2017-04-24T06:16:29.785Z,6.31
2017-04-24T06:17:11.798Z,6.31
2017-04-24T06:17:52.472Z,6.33
2017-04-24T06:18:33.133Z,6.54
2017-04-24T06:19:13.783Z,6.44
2017-04-24T06:19:55.791Z,6.54
2017-04-24T06:20:36.427Z,6.63
2017-04-24T06:21:17.122Z,6.59
2017-04-24T06:21:57.804Z,6.59
2017-04-24T06:22:38.352Z,6.66
2017-04-24T06:23:19.058Z,6.64
2017-04-24T06:23:59.723Z,6.84
2017-04-24T06:24:40.312Z,6.78
2017-04-24T06:25:20.881Z,6.79
2017-04-24T06:26:01.476Z,6.82
2017-04-24T06:26:42.168Z,6.81
2017-04-24T06:27:22.694Z,6.89
2017-04-24T06:28:03.305Z,6.95
2017-04-24T06:28:43.924Z,6.96
2017-04-24T06:29:24.452Z,6.93
2017-04-24T06:30:05.049Z,7
2017-04-24T06:30:45.682Z,6.96
2017-04-24T06:31:26.218Z,6.97
2017-04-24T06:32:06.817Z,7.14
2017-04-24T06:32:47.449Z,7.11
2017-04-24T06:33:27.946Z,7.2
2017-04-24T06:34:09.575Z,7.23
2017-04-24T06:34:50.215Z,7.29
2017-04-24T06:35:30.730Z,7.35
2017-04-24T06:36:11.328Z,7.36
2017-04-24T06:36:51.917Z,7.4
2017-04-24T06:37:32.526Z,7.47
2017-04-24T06:38:13.033Z,7.5
2017-04-24T06:38:53.636Z,7.53
2017-04-24T06:39:34.235Z,7.6
2017-04-24T06:40:14.926Z,7.63
2017-04-24T06:40:55.425Z,7.76
2017-04-24T06:41:36.036Z,7.79
2017-04-24T06:42:16.535Z,7.91
2017-04-24T06:42:57.091Z,7.87
2017-04-24T06:43:37.700Z,8.03
2017-04-24T06:44:18.381Z,8.01
2017-04-24T06:44:59.007Z,7.94
2017-04-24T06:45:39.563Z,8
2017-04-24T06:46:20.194Z,8.13
2017-04-24T06:47:00.717Z,8.12
2017-04-24T06:47:41.308Z,8.16
2017-04-24T06:48:21.945Z,8.3
2017-04-24T06:49:02.476Z,8.3
2017-04-24T06:49:43.064Z,8.27
2017-04-24T06:50:23.692Z,8.37
2017-04-24T06:51:04.234Z,8.38
2017-04-24T06:51:44.930Z,8.44
2017-04-24T06:52:25.554Z,8.45
2017-04-24T06:53:06.093Z,8.53
2017-04-24T06:53:46.795Z,8.55
2017-04-24T06:54:27.414Z,8.6
2017-04-24T06:55:07.968Z,8.64
2017-04-24T06:55:48.642Z,8.66
2017-04-24T06:56:29.274Z,8.71
2017-04-24T06:57:09.940Z,8.67
2017-04-24T06:57:50.596Z,8.76
2017-04-24T06:58:31.249Z,8.71
2017-04-24T06:59:11.898Z,8.79
2017-04-24T06:59:52.552Z,8.79
2017-04-24T07:00:33.201Z,8.73
2017-04-24T07:01:13.869Z,8.79
2017-04-24T07:01:54.510Z,8.91
2017-04-24T07:02:36.184Z,8.91
2017-04-24T07:03:18.001Z,8.92
2017-04-24T07:03:58.696Z,8.99
2017-04-24T07:04:39.433Z,9.06
2017-04-24T07:05:20.206Z,8.97
2017-04-24T07:06:00.887Z,9.03
2017-04-24T07:06:42.589Z,9.08
2017-04-24T07:07:23.209Z,9.04
2017-04-24T07:08:03.918Z,8.95
2017-04-24T07:08:44.541Z,8.95
2017-04-24T07:09:25.189Z,9.02
2017-04-24T07:10:05.809Z,9.08
2017-04-24T07:10:46.476Z,9.04
2017-04-24T07:11:27.172Z,9.16
2017-04-24T07:12:07.909Z,9.19
2017-04-24T07:12:48.564Z,9.16
2017-04-24T07:13:29.232Z,9.16
2017-04-24T07:14:09.887Z,9.23
2017-04-24T07:14:50.488Z,9.26
2017-04-24T07:15:31.046Z,9.23
2017-04-24T07:16:11.699Z,9.34
2017-04-24T07:16:52.301Z,9.37
2017-04-24T07:17:32.992Z,9.39
2017-04-24T07:18:14.504Z,9.44
2017-04-24T07:18:57.202Z,9.4
2017-04-24T07:19:37.874Z,9.48
2017-04-24T07:20:19.598Z,9.56
2017-04-24T07:21:00.188Z,9.5
2017-04-24T07:21:40.842Z,9.59
2017-04-24T07:22:21.530Z,9.46
2017-04-24T07:23:03.226Z,9.41
2017-04-24T07:23:43.791Z,9.46
2017-04-24T07:24:24.468Z,9.58
2017-04-24T07:25:05.152Z,9.48
2017-04-24T07:25:45.862Z,9.55
2017-04-24T07:26:26.357Z,9.56
2017-04-24T07:27:07.006Z,9.48
2017-04-24T07:27:47.667Z,9.51
2017-04-24T07:28:28.350Z,9.55
2017-04-24T07:29:08.859Z,9.58
2017-04-24T07:29:49.475Z,9.54
2017-04-24T07:30:30.162Z,9.46
2017-04-24T07:31:10.869Z,9.61
2017-04-24T07:31:51.404Z,9.51
2017-04-24T07:32:32.111Z,9.56
2017-04-24T07:33:12.798Z,9.58
